Elk Run Heights, Iowa
Current Conditions -  °F | °C
As of 11:54 PM on Sunday 25 Jan 2015 (Local Time) from KALO Reporting Station
Overcast Overcast  
Wind Chill: 28°   Ceiling: 2000
Heat Index: 28°   Visibility: 10mi
Dew Point: 24°   Wind: 0mph
Humidity: 85%   Direction: NA
Pressure: 30.03"   Gusts: NA
Location:  42.4775°N, 92.2749°W
Report Text: KALO 260554Z AUTO 00000KT 10SM OVC020 M02/M04 A3003 RMK AO2 SLP181 T10221044 11011 21022 400171022 56010
Loading
Personal Weather Stations






























Interactive Weather Map New forecast layout! Learn more

10-Day Weather Forecast

Advertisements
Track Severe Weather on mobile